createdAt,value
2023-04-15T00:01:28.731Z,24.08
2023-04-15T00:06:32.174Z,24.49
2023-04-15T00:11:37.331Z,24.43
2023-04-15T00:16:40.934Z,24.74
2023-04-15T00:21:44.368Z,24.37
2023-04-15T00:26:49.334Z,24.23
2023-04-15T00:31:53.020Z,24.36
2023-04-15T00:36:56.616Z,24.37
2023-04-15T00:42:01.922Z,24.95
2023-04-15T00:47:07.132Z,24.67
2023-04-15T00:52:10.780Z,24.57
2023-04-15T00:57:16.097Z,25.27
2023-04-15T01:02:20.004Z,24.81
2023-04-15T01:07:23.585Z,24.77
2023-04-15T01:12:29.574Z,25.04
2023-04-15T01:17:33.278Z,24.85
2023-04-15T01:22:36.897Z,24.97
2023-04-15T01:27:43.626Z,25.85
2023-04-15T01:32:47.150Z,25.28
2023-04-15T01:38:11.563Z,25.20
2023-04-15T01:43:16.716Z,25.35
2023-04-15T01:48:21.870Z,25.58
2023-04-15T01:53:27.100Z,25.71
2023-04-15T01:58:33.199Z,25.42
2023-04-15T02:03:39.106Z,26.13
2023-04-15T02:08:43.912Z,25.86
2023-04-15T02:13:49.953Z,25.65
2023-04-15T02:18:54.758Z,26.28
2023-04-15T02:23:59.732Z,25.72
2023-04-15T02:29:05.504Z,25.93
2023-04-15T02:34:10.438Z,25.91
2023-04-15T02:39:16.984Z,26.03
2023-04-15T02:44:25.154Z,26.60
2023-04-15T02:49:31.121Z,26.00
2023-04-15T02:54:35.740Z,26.30
2023-04-15T02:59:41.821Z,26.38
2023-04-15T03:04:46.666Z,26.02
2023-04-15T03:09:51.778Z,25.87
2023-04-15T03:14:57.943Z,25.76
2023-04-15T03:20:03.329Z,26.00
2023-04-15T03:25:08.415Z,25.66
2023-04-15T03:30:15.165Z,25.72
2023-04-15T03:35:19.933Z,25.37
2023-04-15T03:40:24.594Z,24.99
2023-04-15T03:45:30.745Z,25.14
2023-04-15T03:50:35.772Z,24.64
2023-04-15T03:55:40.203Z,24.91
2023-04-15T04:00:46.414Z,24.67
2023-04-15T04:05:51.268Z,24.10
2023-04-15T04:10:56.305Z,23.49
2023-04-15T04:16:02.194Z,23.35
2023-04-15T04:21:07.136Z,22.53
2023-04-15T04:26:11.770Z,21.95
2023-04-15T04:31:17.854Z,21.00
2023-04-15T04:36:22.574Z,21.51
2023-04-15T04:41:27.390Z,21.59
2023-04-15T04:46:33.477Z,21.46
2023-04-15T04:51:38.372Z,21.47
2023-04-15T04:56:43.086Z,21.33
2023-04-15T05:01:49.531Z,20.75
2023-04-15T05:06:54.562Z,20.29
2023-04-15T05:11:59.560Z,20.05
2023-04-15T05:17:05.754Z,18.80
2023-04-15T05:22:10.705Z,18.88
2023-04-15T05:27:15.140Z,18.03
2023-04-15T05:32:21.854Z,17.44
2023-04-15T05:37:26.556Z,17.50
2023-04-15T05:42:31.613Z,17.13
2023-04-15T05:47:38.671Z,16.89
2023-04-15T05:52:43.782Z,16.31
2023-04-15T05:57:48.710Z,15.97
2023-04-15T06:02:54.988Z,16.51
2023-04-15T06:07:59.692Z,16.74
2023-04-15T06:13:04.514Z,15.70
2023-04-15T06:18:11.926Z,14.71
2023-04-15T06:23:16.615Z,13.98
2023-04-15T06:28:21.262Z,14.05
2023-04-15T06:33:27.384Z,13.00
2023-04-15T06:38:32.112Z,12.36
2023-04-15T06:43:36.492Z,12.05
2023-04-15T06:48:42.653Z,11.92
2023-04-15T06:53:47.349Z,11.69
2023-04-15T06:58:51.748Z,11.42
2023-04-15T07:03:57.841Z,9.80
2023-04-15T07:09:03.611Z,8.79
2023-04-15T07:14:08.677Z,8.54
2023-04-15T07:19:14.729Z,8.69
2023-04-15T07:24:20.924Z,9.40
2023-04-15T07:29:25.790Z,8.73
2023-04-15T07:34:32.685Z,8.60
2023-04-15T07:39:37.707Z,8.44
2023-04-15T07:44:42.556Z,8.52
2023-04-15T07:49:48.889Z,8.43
2023-04-15T07:54:53.994Z,9.57
2023-04-15T07:59:58.651Z,9.55
2023-04-15T08:05:05.453Z,9.39
2023-04-15T08:10:11.076Z,9.88
2023-04-15T08:15:15.848Z,10.01
2023-04-15T08:20:22.177Z,9.65
2023-04-15T08:25:27.403Z,10.13
2023-04-15T08:30:32.064Z,10.09
2023-04-15T08:35:37.871Z,10.20
2023-04-15T08:40:45.004Z,10.42
2023-04-15T08:45:51.977Z,11.54
2023-04-15T08:50:59.223Z,11.88
2023-04-15T08:56:08.756Z,12.63
2023-04-15T09:01:14.515Z,12.75
2023-04-15T09:06:20.749Z,12.90
2023-04-15T09:11:25.516Z,13.24
2023-04-15T09:16:30.199Z,13.66
2023-04-15T09:21:36.282Z,13.50
2023-04-15T09:26:41.438Z,13.23
2023-04-15T09:31:46.664Z,12.96
2023-04-15T09:36:59.325Z,13.20
2023-04-15T09:42:08.475Z,12.84
2023-04-15T09:47:29.495Z,13.09
2023-04-15T09:52:35.670Z,13.15
2023-04-15T09:57:41.532Z,13.40
2023-04-15T10:02:47.341Z,13.12
2023-04-15T10:07:53.753Z,13.15
2023-04-15T10:12:58.671Z,13.35
2023-04-15T10:18:03.583Z,13.21
2023-04-15T10:23:12.906Z,13.51
2023-04-15T10:28:18.480Z,13.11
2023-04-15T10:33:25.808Z,12.99
2023-04-15T10:38:36.678Z,13.09
2023-04-15T10:43:41.696Z,13.45
2023-04-15T10:48:48.943Z,13.03
2023-04-15T10:53:58.781Z,13.25
2023-04-15T10:59:03.433Z,13.39
2023-04-15T11:04:08.492Z,13.66
2023-04-15T11:09:33.335Z,13.08
2023-04-15T11:14:43.517Z,13.42
2023-04-15T11:19:48.519Z,13.77
2023-04-15T11:24:54.253Z,13.68
2023-04-15T11:29:59.002Z,13.49
2023-04-15T11:35:03.708Z,13.68
2023-04-15T11:40:11.763Z,13.73
2023-04-15T11:45:17.499Z,13.57
2023-04-15T11:50:23.784Z,13.96
2023-04-15T11:55:28.920Z,13.54
2023-04-15T12:00:32.657Z,14.04
2023-04-15T12:05:36.374Z,13.74
2023-04-15T12:10:41.256Z,13.70
2023-04-15T12:15:44.976Z,13.70
2023-04-15T12:20:50.200Z,13.83
2023-04-15T12:25:55.285Z,13.93
2023-04-15T12:30:59.600Z,13.86
2023-04-15T12:36:03.381Z,14.10
2023-04-15T12:41:08.376Z,13.96
2023-04-15T12:46:11.919Z,14.07
2023-04-15T12:51:15.723Z,14.13
2023-04-15T12:56:20.774Z,13.95
2023-04-15T13:01:24.273Z,13.85
2023-04-15T13:06:29.317Z,14.03
2023-04-15T13:11:35.143Z,14.25
2023-04-15T13:16:38.722Z,14.37
2023-04-15T13:21:42.701Z,14.39
2023-04-15T13:26:50.115Z,14.14
2023-04-15T13:31:53.979Z,14.31
2023-04-15T13:36:57.793Z,14.38
2023-04-15T13:42:03.843Z,14.53
2023-04-15T13:47:07.478Z,14.45
2023-04-15T13:52:11.124Z,14.68
2023-04-15T13:57:16.304Z,14.92
2023-04-15T14:02:19.996Z,14.78
2023-04-15T14:07:23.780Z,14.96
2023-04-15T14:12:28.764Z,14.91
2023-04-15T14:17:32.518Z,14.94
2023-04-15T14:22:36.292Z,15.07
2023-04-15T14:27:41.273Z,15.21
2023-04-15T14:32:44.446Z,15.75
2023-04-15T14:37:48.043Z,15.57
2023-04-15T14:42:53.362Z,15.91
2023-04-15T14:47:56.915Z,15.77
2023-04-15T14:53:00.628Z,15.67
2023-04-15T14:58:06.496Z,15.93
2023-04-15T15:03:13.882Z,16.37
2023-04-15T15:08:18.051Z,16.32
2023-04-15T15:13:23.277Z,16.42
2023-04-15T15:18:26.831Z,15.91
2023-04-15T15:23:30.272Z,16.34
2023-04-15T15:28:35.571Z,16.66
2023-04-15T15:33:39.083Z,16.83
2023-04-15T15:38:42.991Z,16.78
2023-04-15T15:43:47.939Z,17.34
2023-04-15T15:48:51.634Z,17.28
2023-04-15T15:53:55.154Z,16.65
2023-04-15T15:59:00.112Z,17.43
2023-04-15T16:04:03.512Z,17.39
2023-04-15T16:09:07.497Z,17.35
2023-04-15T16:14:14.144Z,17.72
2023-04-15T16:19:17.655Z,17.82
2023-04-15T16:24:21.406Z,18.17
2023-04-15T16:29:26.668Z,17.93
2023-04-15T16:34:30.167Z,18.20
2023-04-15T16:39:33.967Z,18.45
2023-04-15T16:44:39.012Z,19.07
2023-04-15T16:49:42.928Z,18.66
2023-04-15T16:54:46.500Z,19.42
2023-04-15T16:59:51.701Z,19.20
2023-04-15T17:04:55.033Z,20.69
2023-04-15T17:09:58.547Z,19.54
2023-04-15T17:15:03.897Z,20.37
2023-04-15T17:20:12.446Z,20.13
2023-04-15T17:25:17.926Z,19.51
2023-04-15T17:30:28.304Z,20.24
2023-04-15T17:35:51.783Z,20.92
2023-04-15T17:41:15.522Z,21.69
2023-04-15T17:46:40.353Z,21.41
2023-04-15T17:52:04.188Z,21.61
2023-04-15T17:57:27.626Z,21.42
2023-04-15T18:02:52.985Z,21.97
2023-04-15T18:08:16.862Z,22.04
2023-04-15T18:13:42.579Z,22.15
2023-04-15T18:19:08.945Z,22.14
2023-04-15T18:24:12.520Z,21.69
2023-04-15T18:29:16.121Z,22.22
2023-04-15T18:34:21.087Z,22.50
2023-04-15T18:39:24.606Z,22.59
2023-04-15T18:44:28.549Z,22.67
2023-04-15T18:49:34.114Z,22.86
2023-04-15T18:54:40.929Z,22.90
2023-04-15T18:59:44.712Z,23.36
2023-04-15T19:04:49.735Z,23.05
2023-04-15T19:09:53.294Z,22.93
2023-04-15T19:14:56.710Z,22.44
2023-04-15T19:20:01.715Z,23.03
2023-04-15T19:25:08.043Z,23.27
2023-04-15T19:30:11.791Z,23.59
2023-04-15T19:35:16.850Z,23.33
2023-04-15T19:40:20.751Z,23.39
2023-04-15T19:45:24.693Z,23.58
2023-04-15T19:50:29.776Z,23.28
2023-04-15T19:55:33.539Z,23.08
2023-04-15T20:00:37.984Z,22.93
2023-04-15T20:05:43.225Z,23.28
2023-04-15T20:10:46.589Z,24.60
2023-04-15T20:15:50.351Z,24.58
2023-04-15T20:20:55.330Z,24.29
2023-04-15T20:25:58.833Z,24.65
2023-04-15T20:31:02.752Z,24.48
2023-04-15T20:36:08.271Z,24.83
2023-04-15T20:41:11.896Z,24.52
2023-04-15T20:46:21.028Z,24.63
2023-04-15T20:51:27.636Z,24.85
2023-04-15T20:56:31.230Z,24.58
2023-04-15T21:01:34.810Z,24.69
2023-04-15T21:06:39.997Z,24.72
2023-04-15T21:12:00.418Z,24.87
2023-04-15T21:17:10.192Z,25.01
2023-04-15T21:22:16.381Z,25.21
2023-04-15T21:27:19.935Z,25.17
2023-04-15T21:32:23.609Z,24.70
2023-04-15T21:37:28.652Z,25.06
2023-04-15T21:42:32.379Z,24.78
2023-04-15T21:48:04.217Z,24.85
2023-04-15T21:53:01.161Z,24.61
2023-04-15T21:58:04.943Z,25.22
2023-04-15T22:03:08.581Z,25.22
2023-04-15T22:08:13.649Z,24.78
2023-04-15T22:13:17.966Z,25.17
2023-04-15T22:18:21.601Z,25.28
2023-04-15T22:23:26.695Z,24.96
2023-04-15T22:28:30.265Z,24.93
2023-04-15T22:33:34.128Z,25.15
2023-04-15T22:38:39.080Z,25.52
2023-04-15T22:43:42.351Z,25.21
2023-04-15T22:48:46.157Z,25.29
2023-04-15T22:53:51.224Z,25.54
2023-04-15T22:58:54.927Z,25.69
2023-04-15T23:04:05.891Z,25.53
2023-04-15T23:09:23.744Z,25.83
2023-04-15T23:14:28.287Z,25.73
2023-04-15T23:19:31.797Z,26.34
2023-04-15T23:24:36.700Z,26.32
2023-04-15T23:29:40.220Z,26.42
2023-04-15T23:34:43.643Z,26.63
2023-04-15T23:39:48.893Z,26.33
2023-04-15T23:44:52.668Z,27.01
2023-04-15T23:49:56.601Z,27.20
2023-04-15T23:55:01.610Z,28.52
